Flight Track Log - Related Links

Times and Time Zones

All times are in EDT time to prevent confusion due to time zone crossing. See the N762NC flight status page for this flight to view local times or setup timezone preferences in your user account.


Time Position Orientation Groundspeed Altitude Reporting Facility
EDT Latitude Longitude Course Direction KTS MPH feet Rate Location/Type
Sat 07:07:46 PM 34.7403 -92.1236 89° East 209 241 3,400  Level Memphis Center
Sat 07:08:47 PM 34.7289 -92.0400 99° East 252 290 5,600 2,233 Climbing Memphis Center
Sat 07:09:55 PM 34.7217 -91.9539 96° East 263 303 8,200 1,781 Climbing Memphis Center
Sat 07:10:55 PM 34.7125 -91.8628 97° East 269 310 9,400 2,250 Climbing Memphis Center
Sat 07:11:55 PM 34.6842 -91.7792 112° Southeast 269 310 12,700 2,400 Climbing Memphis Center
Sat 07:12:55 PM 34.6394 -91.6850 120° Southeast 280 322 14,200 1,250 Climbing Memphis Center
Sat 07:13:55 PM 34.5903 -91.5883 122° Southeast 327 376 15,200 1,100 Climbing Memphis Center
Sat 07:14:55 PM 34.5536 -91.4944 115° Southeast 332 382 16,400 1,650 Climbing Memphis Center
Sat 07:15:55 PM 34.5003 -91.3828 120° Southeast 363 418 18,500 2,150 Climbing Memphis Center
Sat 07:16:55 PM 34.4950 -91.2567 93° East 363 418 20,700 1,950 Climbing Memphis Center
Sat 07:17:55 PM 34.4917 -91.1233 92° East 379 436 22,400 1,462 Climbing Memphis Center
Sat 07:18:54 PM 34.4883 -90.9819 92° East 404 465 23,600 1,361 Climbing Memphis Center
Sat 07:19:54 PM 34.4911 -90.8358 89° East 424 488 25,100 1,388 Climbing Memphis Center
Sat 07:20:55 PM 34.4936 -90.6872 89° East 431 496 26,400 1,289 Climbing Memphis Center
Sat 07:21:55 PM 34.5003 -90.5233 87° East 441 507 27,700 1,059 Climbing Memphis Center
Sat 07:22:54 PM 34.5067 -90.3647 87° East 441 507 28,500 655 Climbing Memphis Center
Sat 07:23:54 PM 34.5128 -90.2008 87° East 464 534 29,000 248 Climbing Memphis Center
Sat 07:24:55 PM 34.5186 -90.0319 88° East 482 555 29,000  Level Memphis Center
Sat 07:25:55 PM 34.5286 -89.8581 86° East 502 578 29,000  Level Memphis Center
Sat 07:26:55 PM 34.5422 -89.6864 84° East 515 593 29,000  Level Memphis Center
Sat 07:27:55 PM 34.5558 -89.5122 85° East 520 598 29,000  Level Memphis Center
Sat 07:28:55 PM 34.5714 -89.3406 84° East 520 598 29,000  Level Memphis Center
Sat 07:29:54 PM 34.5864 -89.1664 84° East 520 598 29,000  Level Memphis Center
Sat 07:30:55 PM 34.6014 -88.9972 84° East 520 598 29,000  Level Memphis Center
Sat 07:31:55 PM 34.6181 -88.8253 83° East 514 592 29,000  Level Memphis Center
Sat 07:32:55 PM 34.6325 -88.6533 84° East 519 597 29,000  Level Memphis Center
Sat 07:33:55 PM 34.6511 -88.4864 82° East 519 597 29,000  Level Memphis Center
Sat 07:34:55 PM 34.6669 -88.3092 84° East 514 592 29,000  Level Memphis Center
Sat 07:35:55 PM 34.6825 -88.1269 84° East 531 611 29,000  Level Memphis Center
Sat 07:36:55 PM 34.6669 -87.9558 96° East 526 605 29,000  Level Memphis Center
Sat 07:37:55 PM 34.6514 -87.8047 97° East 520 598 29,000  Level Memphis Center
Sat 07:39:28 PM 34.6231 -87.5397 97° East 525 604 29,000  Level Atlanta Center
Sat 07:40:28 PM 34.6028 -87.3700 98° East 525 604 29,000  Level Atlanta Center
Sat 07:41:28 PM 34.5781 -87.1975 100° East 520 598 29,000  Level Atlanta Center
Sat 07:42:28 PM 34.5578 -87.0100 97° East 513 590 29,000  Level Atlanta Center
Sat 07:43:28 PM 34.5367 -86.8403 99° East 513 590 29,000 -150 Level Atlanta Center
Sat 07:44:28 PM 34.5133 -86.6706 99° East 513 590 28,700 -600 Descending Atlanta Center
Sat 07:45:28 PM 34.4814 -86.5008 103° East 508 585 27,800 -1,000 Descending Atlanta Center
Sat 07:46:28 PM 34.4408 -86.3358 107° East 508 585 26,700 -1,100 Descending Atlanta Center
Sat 07:47:28 PM 34.3936 -86.1736 109° East 508 585 25,600 -900 Descending Atlanta Center
Sat 07:48:28 PM 34.3483 -86.0139 109° East 508 585 24,900 -900 Descending Atlanta Center
Sat 07:49:28 PM 34.3028 -85.8544 109° East 508 585 23,800 -1,600 Descending Atlanta Center
Sat 07:50:28 PM 34.2608 -85.7228 111° Southeast 487 560 21,700 -2,350 Descending Atlanta Center
Sat 07:51:28 PM 34.2231 -85.5714 107° East 477 549 19,100 -2,600 Descending Atlanta Center
Sat 07:52:28 PM 34.2058 -85.4278 98° East 445 512 16,500 -2,500 Descending Atlanta Center
Sat 07:53:28 PM 34.1950 -85.2894 95° East 416 479 14,100 -1,650 Descending Atlanta Center
Sat 07:54:28 PM 34.1753 -85.1636 101° East 388 447 13,200 -500 Descending Atlanta Center
Sat 07:55:28 PM 34.1219 -85.0525 120° Southeast 331 381 13,100 -300 Descending Atlanta Center
Sat 07:56:28 PM 34.0619 -84.9817 136° Southeast 318 366 12,600 -1,000 Descending Atlanta Center
Sat 07:57:28 PM 34.0144 -84.9108 129° Southeast 287 330 11,100 -1,250 Descending Atlanta Center
Sat 07:58:28 PM 33.9586 -84.8453 136° Southeast 281 323 10,100 -1,050 Descending Atlanta Center
Sat 07:59:28 PM 33.9108 -84.7897 136° Southeast 258 297 9,000 -1,350 Descending Atlanta Center
Sat 08:00:28 PM 33.8633 -84.7367 137° Southeast 240 276 7,400 -1,300 Descending Atlanta Center
Sat 08:01:28 PM 33.8069 -84.7064 156° South 229 264 6,400 -800 Descending Atlanta Center
Sat 08:02:28 PM 33.7589 -84.7358 207° Southwest 194 223 5,800 -600 Descending Atlanta Center
Sat 08:03:28 PM 33.7439 -84.8083 256° West 168 193 5,200 -216 Descending Atlanta Center
Sat 08:05:42 PM 33.6833 -84.9000 232° Southwest 175 201 5,100 -31 Descending Atlanta TRACON
Sat 08:06:42 PM 33.6500 -84.8667 140° Southeast 182 209 5,100  Level Atlanta TRACON
Sat 08:07:42 PM 33.6500 -84.8000 90° East 184 212 5,100  Level Atlanta TRACON
Sat 08:08:42 PM 33.6500 -84.7500 90° East 181 208 5,100 -95 Level Atlanta TRACON
Sat 08:09:48 PM 33.6500 -84.6833 90° East 186 214 4,900 -550 Descending Atlanta TRACON
Sat 08:10:42 PM 33.6500 -84.6167 90° East 178 205 4,000 -1,000 Descending Atlanta TRACON
Sat 08:11:42 PM 33.6500 -84.5667 90° East 189 217 3,000 -900 Descending Atlanta TRACON
Sat 08:12:42 PM 33.6500 -84.5000 90° East 159 183 2,200 -750 Descending Atlanta TRACON
Sat 08:13:42 PM 33.6500 -84.4667 90° East 123 142 1,500 -700 Descending Atlanta TRACON

Login

Don't have an account? Register now (free) for customized features, flight alerts, and more!